El Pajonal, Argentina
Current Conditions -  °F | °C
As of 10:00 AM on Saturday 25 Oct 2014 (Local Time) from SANT Reporting Station
Clear Clear  
Wind Chill: 86°   Ceiling: Unl
Heat Index: 87°   Visibility: 5mi
Dew Point: 63°   Wind: 3mph
Humidity: 45%   Direction: 270°W
Pressure: 29.91"   Gusts: NA
Location:  28.39°S, 66.26°W
Report Text: SANT 251300Z 27003KT 8000 NSC 30/17 Q1013
Loading
Personal Weather Stations






























Interactive Weather Map
Tropical Storm Tracking
New forecast layout! Learn more

10-Day Weather Forecast

Advertisements
Track Severe Weather on mobile